createdAt,value
2017-11-21T00:02:09.491Z,17.35
2017-11-21T00:04:37.048Z,17.42
2017-11-21T00:07:04.509Z,16.35
2017-11-21T00:09:32.060Z,16.92
2017-11-21T00:12:00.291Z,17.87
2017-11-21T00:14:27.759Z,17.35
2017-11-21T00:16:55.223Z,17.62
2017-11-21T00:19:22.697Z,19.70
2017-11-21T00:21:50.149Z,17.02
2017-11-21T00:24:17.641Z,15.20
2017-11-21T00:26:45.860Z,16.05
2017-11-21T00:29:13.319Z,16.45
2017-11-21T00:31:40.773Z,16.02
2017-11-21T00:34:08.225Z,18.17
2017-11-21T00:36:35.691Z,17.85
2017-11-21T00:39:03.141Z,11.90
2017-11-21T00:41:30.611Z,17.15
2017-11-21T00:43:58.066Z,12.80
2017-11-21T00:46:25.535Z,15.65
2017-11-21T00:48:53.003Z,15.20
2017-11-21T00:51:20.470Z,14.52
2017-11-21T00:53:48.021Z,14.50
2017-11-21T00:56:15.479Z,16.35
2017-11-21T00:58:42.937Z,13.10
2017-11-21T01:01:10.402Z,12.60
2017-11-21T01:03:38.624Z,18.02
2017-11-21T01:06:06.084Z,13.52
2017-11-21T01:08:33.541Z,14.23
2017-11-21T01:11:01.042Z,14.35
2017-11-21T01:13:28.596Z,16.30
2017-11-21T01:15:56.063Z,20.23
2017-11-21T01:18:24.338Z,16.90
2017-11-21T01:20:52.559Z,13.15
2017-11-21T01:23:20.067Z,15.25
2017-11-21T01:25:47.531Z,16.92
2017-11-21T01:28:15.852Z,16.50
2017-11-21T01:30:43.309Z,19.10
2017-11-21T01:33:10.810Z,19.70
2017-11-21T01:35:38.274Z,15.70
2017-11-21T01:38:06.507Z,15.30
2017-11-21T01:40:33.989Z,16.60
2017-11-21T01:43:01.551Z,15.20
2017-11-21T01:45:29.115Z,17.48
2017-11-21T01:47:56.574Z,15.75
2017-11-21T01:50:24.131Z,18.33
2017-11-21T01:52:51.685Z,16.75
2017-11-21T01:55:19.258Z,17.92
2017-11-21T01:57:46.734Z,17.23
2017-11-21T02:00:15.238Z,15.70
2017-11-21T02:02:42.746Z,14.73
2017-11-21T02:05:10.302Z,19.87
2017-11-21T02:07:37.858Z,16.73
2017-11-21T02:10:05.326Z,17.67
2017-11-21T02:12:32.800Z,15.30
2017-11-21T02:15:01.032Z,18.27
2017-11-21T02:17:28.491Z,16.50
2017-11-21T02:19:55.949Z,15.75
2017-11-21T02:22:23.419Z,17.08
2017-11-21T02:24:50.971Z,18.12
2017-11-21T02:27:18.441Z,16.65
2017-11-21T02:29:45.995Z,13.65
2017-11-21T02:32:13.466Z,17.67
2017-11-21T02:34:41.691Z,16.48
2017-11-21T02:37:09.160Z,16.00
2017-11-21T02:39:36.614Z,15.52
2017-11-21T02:42:04.079Z,16.90
2017-11-21T02:44:31.557Z,16.25
2017-11-21T02:46:59.021Z,15.52
2017-11-21T02:49:27.246Z,14.50
2017-11-21T02:51:54.736Z,17.98
2017-11-21T02:54:22.295Z,18.95
2017-11-21T02:56:49.854Z,20.75
2017-11-21T02:59:17.323Z,14.05
2017-11-21T03:01:44.787Z,18.37
2017-11-21T03:04:13.041Z,18.75
2017-11-21T03:06:40.601Z,14.13
2017-11-21T03:09:08.062Z,15.95
2017-11-21T03:11:35.611Z,18.10
2017-11-21T03:14:03.179Z,17.10
2017-11-21T03:16:30.734Z,16.83
2017-11-21T03:18:58.198Z,16.50
2017-11-21T03:21:37.630Z,16.90
2017-11-21T03:24:16.998Z,18.85
2017-11-21T03:26:44.521Z,13.50
2017-11-21T03:29:12.080Z,16.55
2017-11-21T03:31:39.542Z,16.65
2017-11-21T03:34:07.019Z,18.00
2017-11-21T03:36:35.246Z,14.23
2017-11-21T03:39:02.734Z,18.15
2017-11-21T03:41:30.206Z,15.80
2017-11-21T03:43:58.431Z,14.80
2017-11-21T03:46:25.935Z,15.43
2017-11-21T03:48:53.385Z,16.85
2017-11-21T03:51:20.850Z,18.00
2017-11-21T03:53:49.076Z,17.83
2017-11-21T03:56:16.537Z,17.95
2017-11-21T03:58:44.022Z,16.75
2017-11-21T04:01:11.491Z,18.40
2017-11-21T04:03:39.742Z,15.35
2017-11-21T04:06:07.313Z,15.30
2017-11-21T04:08:34.770Z,13.73
2017-11-21T04:11:02.323Z,15.48
2017-11-21T04:13:29.794Z,17.98
2017-11-21T04:15:57.248Z,17.50
2017-11-21T04:18:24.794Z,18.85
2017-11-21T04:20:52.270Z,16.90
2017-11-21T04:23:20.525Z,18.73
2017-11-21T04:25:48.086Z,15.10
2017-11-21T04:28:15.642Z,16.12
2017-11-21T04:30:43.133Z,17.08
2017-11-21T04:33:11.362Z,19.08
2017-11-21T04:35:38.831Z,17.05
2017-11-21T04:38:06.390Z,17.02
2017-11-21T04:40:33.949Z,18.92
2017-11-21T04:43:01.417Z,15.85
2017-11-21T04:45:28.875Z,18.62
2017-11-21T04:47:56.354Z,17.05
2017-11-21T04:50:23.814Z,14.82
2017-11-21T04:52:51.338Z,15.50
2017-11-21T04:55:18.811Z,18.42
2017-11-21T04:57:47.050Z,16.58
2017-11-21T05:00:14.523Z,20.73
2017-11-21T05:02:42.087Z,17.75
2017-11-21T05:05:09.638Z,19.58
2017-11-21T05:07:37.099Z,17.20
2017-11-21T05:10:04.754Z,20.65
2017-11-21T05:12:32.224Z,18.70
2017-11-21T05:14:59.778Z,18.77
2017-11-21T05:17:27.330Z,18.77
2017-11-21T05:19:54.803Z,21.83
2017-11-21T05:22:22.258Z,16.87
2017-11-21T05:24:49.802Z,17.45
2017-11-21T05:27:17.364Z,18.27
2017-11-21T05:29:44.924Z,20.70
2017-11-21T05:32:13.418Z,18.70
2017-11-21T05:34:40.963Z,22.27
2017-11-21T05:37:08.519Z,19.83
2017-11-21T05:39:35.982Z,21.00
2017-11-21T05:42:03.583Z,24.33
2017-11-21T05:44:31.253Z,20.92
2017-11-21T05:46:58.747Z,31.25
2017-11-21T05:49:26.206Z,18.42
2017-11-21T05:51:53.771Z,20.25
2017-11-21T05:54:21.284Z,20.83
2017-11-21T05:56:48.803Z,21.95
2017-11-21T05:59:16.565Z,23.23
2017-11-21T06:01:44.928Z,21.95
2017-11-21T06:04:12.482Z,22.20
2017-11-21T06:06:39.942Z,21.02
2017-11-21T06:09:07.410Z,19.80
2017-11-21T06:11:34.870Z,21.05
2017-11-21T06:14:03.135Z,21.73
2017-11-21T06:16:31.278Z,24.33
2017-11-21T06:18:58.745Z,21.30
2017-11-21T06:21:26.207Z,21.75
2017-11-21T06:23:53.670Z,23.77
2017-11-21T06:26:21.230Z,21.55
2017-11-21T06:28:48.706Z,20.35
2017-11-21T06:31:16.164Z,22.65
2017-11-21T06:33:44.399Z,18.20
2017-11-21T06:36:11.874Z,23.17
2017-11-21T06:38:39.443Z,21.48
2017-11-21T06:41:06.897Z,18.58
2017-11-21T06:43:34.382Z,18.77
2017-11-21T06:46:01.847Z,17.62
2017-11-21T06:48:29.381Z,18.40
2017-11-21T06:50:56.922Z,17.30
2017-11-21T06:53:24.514Z,19.65
2017-11-21T06:55:52.755Z,20.48
2017-11-21T06:58:20.206Z,23.77
2017-11-21T07:00:47.770Z,21.92
2017-11-21T07:03:15.331Z,21.33
2017-11-21T07:05:42.802Z,22.08
2017-11-21T07:08:10.266Z,16.92
2017-11-21T07:10:38.520Z,19.70
2017-11-21T07:13:06.087Z,20.35
2017-11-21T07:15:33.646Z,20.52
2017-11-21T07:18:01.114Z,18.08
2017-11-21T07:20:29.367Z,19.40
2017-11-21T07:22:56.833Z,19.60
2017-11-21T07:25:24.293Z,22.62
2017-11-21T07:27:52.095Z,19.50
2017-11-21T07:30:19.555Z,17.42
2017-11-21T07:32:47.073Z,19.80
2017-11-21T07:35:14.538Z,19.00
2017-11-21T07:37:42.777Z,18.30
2017-11-21T07:40:10.242Z,20.77
2017-11-21T07:42:37.715Z,20.27
2017-11-21T07:45:05.186Z,20.35
2017-11-21T07:47:33.547Z,16.30
2017-11-21T07:50:01.103Z,20.60
2017-11-21T07:52:28.742Z,18.05
2017-11-21T07:54:56.218Z,17.73
2017-11-21T07:57:23.686Z,18.12
2017-11-21T07:59:51.159Z,22.23
2017-11-21T08:02:19.392Z,18.33
2017-11-21T08:04:46.901Z,22.15
2017-11-21T08:07:15.122Z,21.98
2017-11-21T08:09:42.698Z,17.35
2017-11-21T08:12:10.307Z,18.10
2017-11-21T08:14:37.782Z,18.20
2017-11-21T08:17:05.275Z,20.23
2017-11-21T08:19:32.832Z,18.02
2017-11-21T08:22:00.390Z,23.60
2017-11-21T08:24:27.868Z,19.12
2017-11-21T08:26:56.112Z,22.23
2017-11-21T08:29:23.579Z,22.83
2017-11-21T08:31:51.037Z,16.33
2017-11-21T08:34:18.592Z,17.98
2017-11-21T08:36:46.067Z,14.43
2017-11-21T08:39:13.527Z,17.58
2017-11-21T08:41:41.768Z,16.80
2017-11-21T08:44:09.226Z,20.05
2017-11-21T08:46:36.699Z,17.67
2017-11-21T08:49:04.162Z,18.90
2017-11-21T08:51:31.628Z,17.42
2017-11-21T08:53:59.889Z,22.40
2017-11-21T08:56:27.358Z,18.35
2017-11-21T08:58:55.613Z,19.23
2017-11-21T09:01:23.095Z,16.33
2017-11-21T09:03:50.567Z,17.35
2017-11-21T09:06:18.096Z,19.90
2017-11-21T09:08:45.650Z,17.00
2017-11-21T09:11:13.113Z,17.48
2017-11-21T09:13:40.658Z,19.65
2017-11-21T09:16:08.118Z,16.73
2017-11-21T09:18:35.588Z,19.35
2017-11-21T09:21:03.052Z,16.67
2017-11-21T09:23:31.289Z,17.87
2017-11-21T09:25:58.770Z,17.58
2017-11-21T09:28:26.998Z,18.05
2017-11-21T09:30:54.465Z,19.37
2017-11-21T09:33:21.927Z,17.60
2017-11-21T09:35:49.394Z,16.10
2017-11-21T09:38:17.031Z,15.70
2017-11-21T09:40:44.529Z,18.27
2017-11-21T09:43:12.071Z,14.87
2017-11-21T09:45:39.530Z,16.42
2017-11-21T09:48:06.997Z,17.00
2017-11-21T09:50:34.562Z,13.75
2017-11-21T09:53:02.070Z,14.45
2017-11-21T09:55:29.535Z,14.95
2017-11-21T09:57:56.995Z,14.50
2017-11-21T10:00:24.466Z,13.35
2017-11-21T10:02:51.951Z,13.20
2017-11-21T10:05:19.414Z,14.93
2017-11-21T10:07:46.943Z,16.62
2017-11-21T10:10:14.410Z,15.98
2017-11-21T10:12:41.971Z,13.50
2017-11-21T10:15:09.532Z,12.52
2017-11-21T10:17:37.074Z,12.95
2017-11-21T10:20:04.540Z,11.82
2017-11-21T10:22:32.116Z,11.00
2017-11-21T10:24:59.582Z,16.60
2017-11-21T10:27:28.514Z,12.13
2017-11-21T10:29:56.023Z,15.20
2017-11-21T10:32:25.006Z,14.95
2017-11-21T10:34:52.463Z,14.32
2017-11-21T10:37:20.014Z,14.65
2017-11-21T10:39:47.476Z,18.75
2017-11-21T10:42:14.942Z,12.98
2017-11-21T10:44:43.942Z,17.90
2017-11-21T10:47:12.207Z,13.23
2017-11-21T10:49:39.818Z,14.18
2017-11-21T10:52:07.327Z,13.85
2017-11-21T10:54:34.787Z,14.30
2017-11-21T10:57:03.022Z,12.77
2017-11-21T10:59:30.485Z,14.55
2017-11-21T11:01:58.058Z,13.10
2017-11-21T11:04:25.526Z,13.95
2017-11-21T11:06:52.982Z,15.75
2017-11-21T11:09:21.230Z,12.75
2017-11-21T11:11:48.690Z,12.65
2017-11-21T11:14:16.224Z,13.45
2017-11-21T11:16:43.739Z,16.62
2017-11-21T11:19:11.282Z,13.98
2017-11-21T11:21:38.751Z,12.75
2017-11-21T11:24:06.214Z,12.55
2017-11-21T11:26:34.437Z,11.00
2017-11-21T11:29:01.901Z,13.68
2017-11-21T11:31:29.357Z,9.93
2017-11-21T11:33:56.823Z,12.45
2017-11-21T11:36:24.282Z,9.23
2017-11-21T11:38:51.750Z,13.27
2017-11-21T11:41:19.217Z,10.07
2017-11-21T11:43:46.691Z,10.95
2017-11-21T11:46:14.913Z,13.65
2017-11-21T11:48:42.381Z,11.70
2017-11-21T11:51:09.853Z,10.52
2017-11-21T11:53:37.350Z,12.13
2017-11-21T11:56:05.570Z,10.35
2017-11-21T11:58:33.026Z,8.20
2017-11-21T12:01:00.492Z,11.85
2017-11-21T12:03:27.940Z,11.45
2017-11-21T12:05:55.402Z,15.38
2017-11-21T12:08:22.863Z,9.23
2017-11-21T12:10:50.319Z,9.55
2017-11-21T12:13:17.882Z,14.38
2017-11-21T12:15:45.349Z,8.52
2017-11-21T12:18:12.903Z,9.02
2017-11-21T12:20:40.379Z,11.43
2017-11-21T12:23:08.611Z,9.23
2017-11-21T12:25:36.075Z,10.90
2017-11-21T12:28:03.542Z,10.38
2017-11-21T12:30:31.035Z,9.05
2017-11-21T12:32:59.262Z,10.75
2017-11-21T12:35:26.729Z,10.70
2017-11-21T12:37:54.299Z,10.43
2017-11-21T12:40:21.792Z,8.52
2017-11-21T12:42:49.243Z,8.57
2017-11-21T12:45:16.721Z,9.77
2017-11-21T12:47:44.187Z,11.00
2017-11-21T12:50:11.647Z,9.88
2017-11-21T12:52:39.141Z,8.13
2017-11-21T12:55:06.589Z,9.90
2017-11-21T12:57:34.055Z,6.90
2017-11-21T13:00:01.562Z,6.55
2017-11-21T13:02:29.062Z,9.65
2017-11-21T13:04:56.521Z,6.80
2017-11-21T13:07:24.339Z,7.78
2017-11-21T13:09:51.804Z,9.18
2017-11-21T13:12:19.265Z,6.25
2017-11-21T13:14:46.721Z,11.20
2017-11-21T13:17:14.186Z,8.82
2017-11-21T13:19:41.651Z,9.82
2017-11-21T13:22:09.202Z,10.45
2017-11-21T13:24:36.672Z,10.15
2017-11-21T13:27:04.128Z,15.05
2017-11-21T13:29:31.612Z,12.73
2017-11-21T13:31:59.123Z,10.90
2017-11-21T13:34:26.584Z,8.50
2017-11-21T13:36:54.125Z,10.98
2017-11-21T13:39:21.624Z,11.00
2017-11-21T13:41:49.086Z,11.52
2017-11-21T13:44:16.645Z,9.40
2017-11-21T13:46:44.102Z,8.93
2017-11-21T13:49:11.662Z,7.55
2017-11-21T13:51:39.244Z,8.40
2017-11-21T13:54:07.461Z,8.80
2017-11-21T13:56:34.948Z,10.02
2017-11-21T13:59:02.408Z,8.10
2017-11-21T14:01:29.869Z,10.23
2017-11-21T14:03:57.422Z,8.70
2017-11-21T14:06:24.986Z,7.12
2017-11-21T14:08:52.534Z,8.95
2017-11-21T14:11:19.993Z,10.73
2017-11-21T14:13:47.547Z,9.85
2017-11-21T14:16:15.114Z,12.25
2017-11-21T14:18:42.593Z,9.88
2017-11-21T14:21:10.813Z,9.32
2017-11-21T14:23:38.284Z,10.93
2017-11-21T14:26:05.758Z,9.57
2017-11-21T14:28:33.216Z,8.43
2017-11-21T14:31:00.770Z,9.32
2017-11-21T14:33:28.226Z,8.38
2017-11-21T14:35:57.187Z,9.82
2017-11-21T14:38:24.673Z,9.95
2017-11-21T14:40:52.135Z,9.63
2017-11-21T14:43:19.647Z,12.27
2017-11-21T14:45:47.105Z,9.43
2017-11-21T14:48:14.567Z,11.00
2017-11-21T14:50:42.124Z,8.98
2017-11-21T14:53:09.653Z,8.80
2017-11-21T14:55:37.890Z,9.60
2017-11-21T14:58:05.455Z,8.73
2017-11-21T15:00:33.007Z,8.93
2017-11-21T15:03:00.467Z,8.27
2017-11-21T15:05:27.922Z,9.80
2017-11-21T15:07:55.382Z,8.88
2017-11-21T15:10:22.858Z,9.10
2017-11-21T15:12:50.510Z,11.70
2017-11-21T15:15:18.014Z,11.27
2017-11-21T15:17:45.472Z,11.45
2017-11-21T15:20:12.975Z,12.15
2017-11-21T15:22:41.266Z,13.60
2017-11-21T15:25:09.494Z,17.50
2017-11-21T15:27:36.970Z,14.10
2017-11-21T15:30:04.539Z,12.57
2017-11-21T15:32:31.998Z,12.68
2017-11-21T15:34:59.559Z,12.93
2017-11-21T15:37:27.114Z,13.77
2017-11-21T15:39:54.574Z,12.75
2017-11-21T15:42:23.551Z,15.13
2017-11-21T15:44:51.007Z,12.77
2017-11-21T15:47:18.583Z,14.07
2017-11-21T15:49:46.038Z,13.60
2017-11-21T15:52:13.507Z,13.60
2017-11-21T15:54:41.758Z,15.48
2017-11-21T15:57:09.227Z,13.75
2017-11-21T15:59:36.785Z,10.70
2017-11-21T16:02:04.258Z,12.93
2017-11-21T16:04:32.543Z,11.63
2017-11-21T16:07:00.768Z,13.07
2017-11-21T16:09:28.230Z,12.05
2017-11-21T16:11:55.760Z,14.87
2017-11-21T16:14:23.274Z,13.68
2017-11-21T16:16:50.748Z,11.80
2017-11-21T16:19:18.981Z,14.77
2017-11-21T16:21:46.443Z,13.13
2017-11-21T16:24:14.012Z,14.38
2017-11-21T16:26:41.470Z,14.25
2017-11-21T16:29:08.933Z,13.43
2017-11-21T16:31:36.387Z,15.70
2017-11-21T16:34:03.856Z,14.02
2017-11-21T16:36:32.126Z,15.02
2017-11-21T16:39:00.359Z,12.60
2017-11-21T16:41:27.848Z,13.95
2017-11-21T16:43:55.315Z,15.07
2017-11-21T16:46:23.577Z,20.45
2017-11-21T16:48:51.042Z,25.23
2017-11-21T16:51:18.591Z,17.30
2017-11-21T16:53:46.159Z,15.00
2017-11-21T16:56:13.710Z,14.43
2017-11-21T16:58:41.224Z,11.93
2017-11-21T17:01:08.723Z,13.25
2017-11-21T17:03:36.179Z,11.85
2017-11-21T17:06:03.739Z,11.07
2017-11-21T17:08:31.195Z,13.40
2017-11-21T17:10:58.750Z,11.02
2017-11-21T17:13:26.330Z,11.38
2017-11-21T17:15:54.614Z,16.02
2017-11-21T17:18:22.867Z,13.05
2017-11-21T17:20:50.342Z,10.98
2017-11-21T17:23:18.598Z,12.07
2017-11-21T17:25:46.054Z,14.75
2017-11-21T17:28:13.509Z,14.90
2017-11-21T17:30:40.975Z,14.30
2017-11-21T17:33:08.435Z,11.12
2017-11-21T17:35:36.671Z,12.65
2017-11-21T17:38:04.143Z,10.50
2017-11-21T17:40:31.728Z,15.23
2017-11-21T17:42:59.187Z,14.32
2017-11-21T17:45:27.406Z,13.40
2017-11-21T17:47:54.882Z,11.68
2017-11-21T17:50:22.354Z,11.20
2017-11-21T17:52:49.821Z,12.15
2017-11-21T17:55:17.289Z,10.63
2017-11-21T17:57:45.542Z,11.23
2017-11-21T18:00:13.104Z,11.57
2017-11-21T18:02:40.571Z,13.45
2017-11-21T18:05:08.824Z,10.88
2017-11-21T18:07:36.299Z,10.30
2017-11-21T18:10:03.851Z,10.25
2017-11-21T18:12:31.319Z,8.07
2017-11-21T18:14:58.868Z,11.48
2017-11-21T18:17:26.426Z,11.93
2017-11-21T18:19:53.986Z,10.27
2017-11-21T18:22:21.547Z,13.68
2017-11-21T18:24:49.106Z,11.70
2017-11-21T18:27:16.568Z,11.05
2017-11-21T18:29:44.654Z,11.38
2017-11-21T18:32:12.962Z,13.45
2017-11-21T18:34:40.422Z,11.52
2017-11-21T18:37:07.921Z,11.07
2017-11-21T18:39:35.386Z,12.75
2017-11-21T18:42:02.936Z,11.95
2017-11-21T18:44:30.407Z,12.10
2017-11-21T18:46:58.679Z,12.50
2017-11-21T18:49:26.222Z,10.95
2017-11-21T18:51:53.785Z,12.35
2017-11-21T18:54:21.269Z,10.00
2017-11-21T18:56:49.522Z,12.77
2017-11-21T18:59:16.978Z,9.35
2017-11-21T19:01:44.537Z,10.90
2017-11-21T19:04:12.086Z,6.75
2017-11-21T19:06:39.553Z,9.35
2017-11-21T19:09:06.996Z,9.80
2017-11-21T19:11:35.262Z,6.65
2017-11-21T19:14:02.713Z,7.72
2017-11-21T19:16:30.182Z,8.60
2017-11-21T19:18:57.651Z,9.05
2017-11-21T19:21:25.101Z,7.40
2017-11-21T19:23:52.560Z,8.63
2017-11-21T19:26:20.126Z,8.15
2017-11-21T19:28:47.592Z,7.70
2017-11-21T19:31:15.138Z,8.55
2017-11-21T19:33:42.591Z,7.57
2017-11-21T19:36:10.169Z,7.70
2017-11-21T19:38:38.496Z,6.15
2017-11-21T19:41:05.949Z,7.68
2017-11-21T19:43:34.060Z,7.95
2017-11-21T19:46:01.512Z,7.43
2017-11-21T19:48:28.969Z,5.35
2017-11-21T19:50:56.426Z,6.95
2017-11-21T19:53:23.889Z,6.55
2017-11-21T19:55:51.503Z,7.90
2017-11-21T19:58:18.966Z,8.45
2017-11-21T20:00:46.498Z,7.22
2017-11-21T20:03:13.981Z,6.35
2017-11-21T20:05:41.443Z,5.03
2017-11-21T20:08:08.923Z,5.53
2017-11-21T20:10:36.489Z,5.43
2017-11-21T20:13:04.090Z,5.12
2017-11-21T20:15:31.555Z,6.90
2017-11-21T20:17:59.065Z,3.83
2017-11-21T20:20:26.522Z,5.68
2017-11-21T20:22:54.186Z,5.05
2017-11-21T20:25:22.545Z,6.40
2017-11-21T20:27:50.023Z,6.25
2017-11-21T20:30:18.278Z,4.30
2017-11-21T20:32:45.742Z,4.87
2017-11-21T20:35:13.448Z,5.22
2017-11-21T20:37:40.903Z,5.53
2017-11-21T20:40:08.362Z,4.75
2017-11-21T20:42:35.832Z,13.30
2017-11-21T20:45:03.343Z,4.07
2017-11-21T20:47:30.799Z,3.95
2017-11-21T20:49:58.263Z,4.50
2017-11-21T20:52:26.503Z,4.15
2017-11-21T20:54:54.222Z,4.05
2017-11-21T20:57:22.502Z,4.50
2017-11-21T20:59:50.703Z,4.25
2017-11-21T21:02:18.166Z,4.57
2017-11-21T21:04:45.650Z,4.15
2017-11-21T21:07:13.118Z,5.70
2017-11-21T21:09:40.579Z,3.72
2017-11-21T21:12:08.128Z,3.80
2017-11-21T21:14:37.100Z,6.97
2017-11-21T21:17:04.556Z,4.82
2017-11-21T21:19:32.126Z,4.03
2017-11-21T21:21:59.682Z,5.87
2017-11-21T21:24:27.138Z,8.20
2017-11-21T21:26:54.618Z,5.30
2017-11-21T21:29:22.878Z,4.12
2017-11-21T21:31:50.337Z,5.75
2017-11-21T21:34:17.895Z,3.78
2017-11-21T21:36:46.117Z,5.30
2017-11-21T21:39:13.623Z,4.05
2017-11-21T21:41:41.102Z,5.00
2017-11-21T21:44:09.329Z,4.57
2017-11-21T21:46:36.823Z,5.20
2017-11-21T21:49:04.285Z,4.60
2017-11-21T21:51:31.739Z,5.65
2017-11-21T21:54:00.006Z,3.60
2017-11-21T21:56:27.457Z,6.68
2017-11-21T21:58:55.023Z,5.28
2017-11-21T22:01:22.479Z,5.60
2017-11-21T22:03:49.969Z,4.18
2017-11-21T22:06:17.442Z,6.10
2017-11-21T22:08:44.890Z,3.65
2017-11-21T22:11:12.355Z,5.32
2017-11-21T22:13:39.807Z,5.05
2017-11-21T22:16:07.316Z,4.25
2017-11-21T22:18:34.809Z,4.43
2017-11-21T22:21:02.277Z,5.15
2017-11-21T22:23:29.722Z,4.43
2017-11-21T22:25:57.182Z,8.05
2017-11-21T22:28:24.640Z,4.05
2017-11-21T22:30:52.155Z,6.40
2017-11-21T22:33:19.609Z,6.00
2017-11-21T22:35:47.186Z,5.80
2017-11-21T22:38:14.639Z,5.62
2017-11-21T22:40:42.143Z,5.82
2017-11-21T22:43:09.643Z,4.90
2017-11-21T22:45:37.164Z,5.55
2017-11-21T22:48:04.626Z,4.87
2017-11-21T22:50:32.135Z,7.07
2017-11-21T22:53:00.363Z,5.18
2017-11-21T22:55:27.908Z,4.72
2017-11-21T22:57:55.401Z,5.72
2017-11-21T23:00:22.851Z,3.97
2017-11-21T23:02:50.414Z,5.10
2017-11-21T23:05:17.867Z,3.72
2017-11-21T23:07:45.444Z,7.65
2017-11-21T23:10:13.052Z,11.57
2017-11-21T23:12:40.553Z,5.12
2017-11-21T23:15:08.775Z,5.40
2017-11-21T23:17:36.229Z,5.57
2017-11-21T23:20:03.748Z,5.65
2017-11-21T23:22:31.363Z,8.60
2017-11-21T23:24:58.883Z,6.10
2017-11-21T23:27:27.135Z,4.87
2017-11-21T23:29:54.603Z,7.10
2017-11-21T23:32:22.215Z,8.38
2017-11-21T23:34:49.711Z,9.25
2017-11-21T23:37:17.166Z,7.05
2017-11-21T23:39:44.723Z,4.40
2017-11-21T23:42:12.178Z,4.95
2017-11-21T23:44:39.642Z,9.50
2017-11-21T23:47:07.199Z,6.40
2017-11-21T23:49:34.761Z,5.40
2017-11-21T23:52:02.313Z,5.47
2017-11-21T23:54:29.870Z,5.80
2017-11-21T23:56:57.323Z,5.45
2017-11-21T23:59:24.786Z,5.43
